Time;durP1;ratioP1;P1;durP2;ratioP2;P2;SDS_P1;SDS_P2;PMS_P1;PMS_P2;Temp;Humidity;BMP_temperature;BMP_pressure;BME280_temperature;BME280_humidity;BME280_pressure;Samples;Min_cycle;Max_cycle;Signal;HPM_P1;HPM_P2
2023/10/12 00:01:25;;;;;;;9.82;3.20;;;;;;;;;;5086006;28;20376;-80
2023/10/12 00:03:55;;;;;;;12.75;3.95;;;;;;;;;;5058239;28;20040;-80
2023/10/12 00:06:21;;;;;;;9.75;3.47;;;;;;;;;;5074141;28;20129;-80
2023/10/12 00:08:48;;;;;;;8.93;3.63;;;;;;;;;;5077522;28;20064;-80
2023/10/12 00:11:19;;;;;;;12.10;3.67;;;;;;;;;;5061232;28;20409;-81
2023/10/12 00:13:44;;;;;;;16.13;4.07;;;;;;;;;;5050577;28;20020;-81
2023/10/12 00:16:10;;;;;;;12.02;3.55;;;;;;;;;;5062904;28;20035;-81
2023/10/12 00:18:35;;;;;;;8.55;3.63;;;;;;;;;;5075787;28;20436;-81
2023/10/12 00:21:07;;;;;;;11.90;3.25;;;;;;;;;;5066496;28;20039;-80
2023/10/12 00:23:33;;;;;;;12.43;3.90;;;;;;;;;;5064266;28;20089;-81
2023/10/12 00:25:59;;;;;;;12.10;3.63;;;;;;;;;;5081899;28;20032;-80
2023/10/12 00:28:37;;;;;;;9.05;3.05;;;;;;;;;;5084347;28;20353;-80
2023/10/12 00:31:06;;;;;;;11.60;3.88;;;;;;;;;;5059880;28;20492;-80
2023/10/12 00:33:31;;;;;;;12.75;3.85;;;;;;;;;;5057735;28;20025;-80
2023/10/12 00:36:19;;;;;;;11.07;3.88;;;;;;;;;;5050490;28;20050;-79
2023/10/12 00:38:46;;;;;;;15.57;3.92;;;;;;;;;;5059134;28;20035;-80
2023/10/12 00:41:14;;;;;;;11.18;3.35;;;;;;;;;;5082000;28;20040;-80
2023/10/12 00:43:57;;;;;;;8.55;2.72;;;;;;;;;;5065786;28;20036;-81
2023/10/12 00:49:14;;;;;;;12.43;3.58;;;;;;;;;;5061549;28;20080;-80
2023/10/12 00:51:40;;;;;;;11.98;3.70;;;;;;;;;;5082838;28;20035;-80
2023/10/12 00:54:09;;;;;;;11.40;3.90;;;;;;;;;;5034784;28;20025;-81
2023/10/12 00:56:36;;;;;;;10.27;3.28;;;;;;;;;;5051030;28;20030;-81
2023/10/12 00:59:03;;;;;;;8.85;3.38;;;;;;;;;;5080725;28;20411;-81
2023/10/12 01:01:31;;;;;;;10.60;3.03;;;;;;;;;;5059116;28;20110;-80
2023/10/12 01:03:56;;;;;;;9.27;3.00;;;;;;;;;;5079855;28;20032;-80
2023/10/12 01:08:50;;;;;;;8.13;3.20;;;;;;;;;;5081891;28;20050;-80
2023/10/12 01:11:20;;;;;;;12.13;3.65;;;;;;;;;;5081695;28;20021;-80
2023/10/12 01:13:49;;;;;;;13.25;2.78;;;;;;;;;;5060729;28;20051;-80
2023/10/12 01:16:28;;;;;;;10.95;3.45;;;;;;;;;;5055044;28;20043;-80
2023/10/12 01:19:00;;;;;;;10.65;3.72;;;;;;;;;;5059498;28;20025;-81
2023/10/12 01:21:28;;;;;;;11.07;3.80;;;;;;;;;;5077013;28;20488;-81
2023/10/12 01:24:00;;;;;;;9.23;3.00;;;;;;;;;;5061499;28;20500;-81
2023/10/12 01:26:26;;;;;;;13.80;2.95;;;;;;;;;;5063818;28;20552;-81
2023/10/12 01:28:55;;;;;;;12.30;3.67;;;;;;;;;;5065294;28;20028;-81
2023/10/12 01:31:27;;;;;;;9.82;3.35;;;;;;;;;;5057358;28;20078;-81
2023/10/12 01:33:55;;;;;;;12.20;3.67;;;;;;;;;;5050824;28;20583;-81
2023/10/12 01:36:27;;;;;;;11.30;3.30;;;;;;;;;;5062500;28;20054;-81
2023/10/12 01:39:10;;;;;;;13.90;3.30;;;;;;;;;;5080888;28;20028;-80
2023/10/12 01:41:35;;;;;;;9.63;3.42;;;;;;;;;;5056127;28;20033;-81
2023/10/12 01:44:00;;;;;;;7.93;2.60;;;;;;;;;;5075169;28;20082;-80
2023/10/12 01:46:26;;;;;;;15.83;3.67;;;;;;;;;;5058382;28;20131;-81
2023/10/12 01:48:52;;;;;;;9.73;2.90;;;;;;;;;;5080750;28;20273;-80
2023/10/12 01:51:24;;;;;;;8.43;3.30;;;;;;;;;;5064016;28;20044;-80
2023/10/12 01:53:50;;;;;;;9.20;3.53;;;;;;;;;;5056913;28;20123;-80
2023/10/12 01:56:16;;;;;;;11.00;3.08;;;;;;;;;;5054694;28;20033;-81
2023/10/12 01:58:44;;;;;;;11.15;3.40;;;;;;;;;;5066239;28;20027;-80
2023/10/12 02:01:18;;;;;;;11.60;3.50;;;;;;;;;;5058266;28;20112;-81
2023/10/12 02:03:43;;;;;;;13.27;3.35;;;;;;;;;;5079282;28;20067;-81
2023/10/12 02:06:16;;;;;;;7.82;3.10;;;;;;;;;;5063119;28;20033;-81
2023/10/12 02:11:10;;;;;;;7.25;3.22;;;;;;;;;;5056568;28;20035;-81
2023/10/12 02:13:36;;;;;;;10.27;3.90;;;;;;;;;;5065217;28;20032;-81
2023/10/12 02:16:02;;;;;;;16.45;3.17;;;;;;;;;;5047900;28;20230;-81
2023/10/12 02:18:27;;;;;;;9.85;3.83;;;;;;;;;;5066218;28;20024;-81
2023/10/12 02:21:20;;;;;;;8.15;3.38;;;;;;;;;;5064710;28;20488;-81
2023/10/12 02:26:36;;;;;;;13.50;4.03;;;;;;;;;;5071900;28;20528;-82
2023/10/12 02:31:39;;;;;;;11.38;3.45;;;;;;;;;;5066866;28;20028;-82
2023/10/12 02:34:16;;;;;;;9.85;3.33;;;;;;;;;;5045693;28;20552;-81
2023/10/12 02:36:41;;;;;;;11.25;3.47;;;;;;;;;;5068684;28;20040;-81
2023/10/12 02:39:20;;;;;;;10.70;3.45;;;;;;;;;;5061032;28;20032;-82
2023/10/12 02:41:52;;;;;;;9.70;3.42;;;;;;;;;;5055858;28;20021;-82
2023/10/12 02:44:19;;;;;;;11.70;3.85;;;;;;;;;;5058955;28;20036;-82
2023/10/12 02:47:04;;;;;;;11.48;3.80;;;;;;;;;;5065026;28;20032;-82
2023/10/12 02:49:34;;;;;;;11.40;3.42;;;;;;;;;;5076691;28;20104;-81
2023/10/12 02:52:05;;;;;;;10.23;3.70;;;;;;;;;;5059101;28;20027;-81
2023/10/12 02:54:32;;;;;;;10.57;3.73;;;;;;;;;;5046936;28;20025;-81
2023/10/12 02:56:57;;;;;;;9.63;3.17;;;;;;;;;;5048346;28;20032;-81
2023/10/12 02:59:25;;;;;;;10.70;3.58;;;;;;;;;;5076213;28;20055;-81
2023/10/12 03:02:07;;;;;;;11.75;3.40;;;;;;;;;;5066224;28;20032;-81
2023/10/12 03:04:38;;;;;;;8.82;3.53;;;;;;;;;;5071762;28;20104;-82
2023/10/12 03:07:11;;;;;;;9.23;3.40;;;;;;;;;;5058225;28;20055;-82
2023/10/12 03:09:43;;;;;;;11.07;3.00;;;;;;;;;;5065365;28;20032;-81
2023/10/12 03:12:09;;;;;;;10.57;4.30;;;;;;;;;;5081840;28;20021;-82
2023/10/12 03:14:38;;;;;;;9.43;3.15;;;;;;;;;;5064804;28;20030;-81
2023/10/12 03:17:04;;;;;;;13.93;3.83;;;;;;;;;;5066131;28;20036;-82
2023/10/12 03:19:35;;;;;;;7.43;3.13;;;;;;;;;;5075892;28;20040;-82
2023/10/12 03:22:03;;;;;;;10.20;3.67;;;;;;;;;;5063024;28;20031;-81
2023/10/12 03:24:44;;;;;;;8.65;3.40;;;;;;;;;;5064569;28;20064;-82
2023/10/12 03:27:13;;;;;;;9.30;3.40;;;;;;;;;;5070219;28;20507;-82
2023/10/12 03:29:43;;;;;;;11.88;3.35;;;;;;;;;;5066470;28;20405;-81
2023/10/12 03:32:12;;;;;;;15.38;4.15;;;;;;;;;;5064852;28;20119;-82
2023/10/12 03:34:53;;;;;;;10.95;4.68;;;;;;;;;;5060068;28;20060;-82
2023/10/12 03:37:19;;;;;;;10.00;3.65;;;;;;;;;;5061772;28;20046;-81
2023/10/12 03:44:54;;;;;;;12.38;4.15;;;;;;;;;;5086881;28;20047;-81
2023/10/12 03:52:20;;;;;;;17.45;5.88;;;;;;;;;;5061253;28;20042;-81
2023/10/12 03:57:30;;;;;;;13.60;4.65;;;;;;;;;;5073734;28;20051;-81
2023/10/12 04:05:21;;;;;;;11.43;3.88;;;;;;;;;;5080984;28;20036;-81
2023/10/12 04:08:17;;;;;;;13.02;3.65;;;;;;;;;;5078955;28;20416;-81
2023/10/12 04:13:55;;;;;;;11.52;4.00;;;;;;;;;;5085310;28;20043;-80
2023/10/12 04:21:17;;;;;;;10.38;4.15;;;;;;;;;;5074304;28;20035;-81
2023/10/12 04:23:59;;;;;;;11.05;4.18;;;;;;;;;;5063539;28;20046;-81
2023/10/12 04:29:00;;;;;;;7.65;3.17;;;;;;;;;;5076772;28;20086;-81
2023/10/12 04:34:05;;;;;;;13.70;4.77;;;;;;;;;;5080779;28;20032;-81
2023/10/12 04:36:36;;;;;;;13.82;4.70;;;;;;;;;;5061605;28;20412;-82
2023/10/12 04:46:58;;;;;;;10.75;3.45;;;;;;;;;;5073288;28;20321;-80
2023/10/12 04:52:13;;;;;;;10.75;3.85;;;;;;;;;;5065440;28;20032;-80
2023/10/12 04:57:31;;;;;;;12.93;3.88;;;;;;;;;;5075815;28;20044;-80
2023/10/12 05:00:17;;;;;;;12.02;3.88;;;;;;;;;;5049591;28;20044;-80
2023/10/12 05:05:15;;;;;;;12.10;4.55;;;;;;;;;;5078920;28;20481;-80
2023/10/12 05:07:58;;;;;;;14.73;5.78;;;;;;;;;;5083346;28;20033;-80
2023/10/12 05:13:05;;;;;;;8.43;3.22;;;;;;;;;;5076091;28;20032;-80
2023/10/12 05:15:39;;;;;;;11.40;4.22;;;;;;;;;;5077728;28;20033;-80
2023/10/12 05:18:11;;;;;;;11.20;3.92;;;;;;;;;;5048847;28;20024;-80
2023/10/12 05:20:41;;;;;;;9.48;3.70;;;;;;;;;;5068494;28;20052;-80
2023/10/12 05:23:06;;;;;;;7.85;3.28;;;;;;;;;;5060609;28;20033;-80
2023/10/12 05:28:17;;;;;;;8.52;3.63;;;;;;;;;;5078048;28;20032;-80
2023/10/12 05:30:54;;;;;;;9.38;3.97;;;;;;;;;;5078315;28;20040;-80
2023/10/12 05:36:00;;;;;;;12.52;4.63;;;;;;;;;;5080434;28;20031;-80
2023/10/12 05:38:35;;;;;;;15.82;4.75;;;;;;;;;;5056972;28;20020;-80
2023/10/12 05:41:01;;;;;;;12.52;3.78;;;;;;;;;;5072981;28;20033;-80
2023/10/12 05:43:29;;;;;;;7.72;3.38;;;;;;;;;;5059330;28;20104;-80
2023/10/12 05:45:54;;;;;;;12.43;3.60;;;;;;;;;;5063277;28;20662;-80
2023/10/12 05:48:20;;;;;;;14.60;3.40;;;;;;;;;;5082397;28;20028;-80
2023/10/12 05:50:49;;;;;;;10.40;3.25;;;;;;;;;;5064196;28;20023;-81
2023/10/12 05:53:16;;;;;;;11.88;3.55;;;;;;;;;;5075943;28;20545;-80
2023/10/12 05:55:41;;;;;;;11.30;3.63;;;;;;;;;;5077319;28;20111;-80
2023/10/12 05:58:11;;;;;;;8.00;3.45;;;;;;;;;;5079346;28;20085;-80
2023/10/12 06:00:36;;;;;;;12.75;4.32;;;;;;;;;;5069626;28;20046;-80
2023/10/12 06:03:03;;;;;;;13.50;4.30;;;;;;;;;;5085012;28;20040;-80
2023/10/12 06:05:28;;;;;;;9.00;3.20;;;;;;;;;;5076812;28;20504;-80
2023/10/12 06:08:00;;;;;;;11.67;4.80;;;;;;;;;;5047961;28;20067;-80
2023/10/12 06:10:27;;;;;;;7.93;3.72;;;;;;;;;;5057220;28;20259;-80
2023/10/12 06:12:52;;;;;;;8.90;3.55;;;;;;;;;;5078231;28;20021;-81
2023/10/12 06:15:22;;;;;;;7.63;4.32;;;;;;;;;;5047804;28;20476;-80
2023/10/12 06:17:49;;;;;;;12.68;3.80;;;;;;;;;;5069381;28;20094;-81
2023/10/12 06:20:29;;;;;;;15.02;4.32;;;;;;;;;;5057972;28;20056;-81
2023/10/12 06:22:54;;;;;;;17.88;5.07;;;;;;;;;;5065769;28;20021;-81
2023/10/12 06:25:21;;;;;;;13.00;4.93;;;;;;;;;;5059440;28;20051;-80
2023/10/12 06:27:48;;;;;;;10.93;4.32;;;;;;;;;;5060212;28;20308;-81
2023/10/12 06:30:23;;;;;;;15.50;5.22;;;;;;;;;;5073409;28;20764;-80
2023/10/12 06:32:48;;;;;;;13.20;4.70;;;;;;;;;;5059960;28;20070;-80
2023/10/12 06:35:23;;;;;;;13.35;4.65;;;;;;;;;;5056152;28;20020;-80
2023/10/12 06:38:15;;;;;;;14.10;4.70;;;;;;;;;;5075481;28;20028;-80
2023/10/12 06:40:47;;;;;;;13.32;6.30;;;;;;;;;;5059640;28;20020;-79
2023/10/12 06:45:46;;;;;;;13.10;5.27;;;;;;;;;;5078409;28;20033;-80
2023/10/12 06:53:52;;;;;;;10.57;4.70;;;;;;;;;;5049280;28;20040;-80
2023/10/12 06:58:45;;;;;;;14.80;5.22;;;;;;;;;;5083984;28;20082;-80
2023/10/12 07:01:27;;;;;;;11.07;5.67;;;;;;;;;;5060105;28;20067;-80
2023/10/12 07:03:52;;;;;;;14.35;5.95;;;;;;;;;;5067828;28;20707;-80
2023/10/12 07:06:17;;;;;;;14.43;5.70;;;;;;;;;;5068409;28;20043;-80
2023/10/12 07:08:46;;;;;;;11.10;4.75;;;;;;;;;;5079046;28;20029;-80
2023/10/12 07:11:13;;;;;;;20.98;6.15;;;;;;;;;;5066515;28;20020;-80
2023/10/12 07:13:40;;;;;;;25.83;5.22;;;;;;;;;;5100332;28;20025;-79
2023/10/12 07:16:06;;;;;;;12.32;5.63;;;;;;;;;;5064493;28;20032;-79
2023/10/12 07:18:34;;;;;;;12.00;5.63;;;;;;;;;;5076524;28;20637;-79
2023/10/12 07:20:59;;;;;;;14.38;6.55;;;;;;;;;;5063499;28;20025;-79
2023/10/12 07:23:35;;;;;;;14.43;5.28;;;;;;;;;;5100710;28;20096;-79
2023/10/12 07:26:01;;;;;;;12.05;5.95;;;;;;;;;;5087861;28;20033;-79
2023/10/12 07:28:32;;;;;;;12.63;5.75;;;;;;;;;;5077093;28;20550;-79
2023/10/12 07:33:52;;;;;;;13.00;6.25;;;;;;;;;;5081313;28;20118;-79
2023/10/12 07:36:17;;;;;;;9.80;5.05;;;;;;;;;;5063192;28;20059;-78
2023/10/12 07:38:45;;;;;;;14.15;5.80;;;;;;;;;;5091576;28;20029;-78
2023/10/12 07:41:10;;;;;;;11.63;5.78;;;;;;;;;;5085987;28;20084;-78
2023/10/12 07:43:38;;;;;;;12.82;6.32;;;;;;;;;;5095098;28;20031;-79
2023/10/12 07:48:47;;;;;;;13.43;5.20;;;;;;;;;;5081315;28;20028;-80
2023/10/12 07:51:19;;;;;;;13.68;5.18;;;;;;;;;;5080418;28;20028;-78
2023/10/12 07:53:44;;;;;;;9.77;4.53;;;;;;;;;;5071702;28;20020;-79
2023/10/12 07:56:15;;;;;;;11.40;5.30;;;;;;;;;;5093896;28;20429;-79
2023/10/12 07:58:41;;;;;;;15.07;5.95;;;;;;;;;;5078047;28;20162;-79
2023/10/12 08:01:38;;;;;;;12.32;6.13;;;;;;;;;;5096843;28;20029;-79
2023/10/12 08:04:09;;;;;;;10.88;5.35;;;;;;;;;;5086763;28;20080;-80
2023/10/12 08:11:44;;;;;;;12.10;5.10;;;;;;;;;;5056313;28;20276;-79
2023/10/12 08:17:24;;;;;;;12.20;6.07;;;;;;;;;;5097739;28;20305;-77
2023/10/12 08:19:39;;;;;;;11.40;5.72;;;;;;;;;;5081831;28;20048;-79
2023/10/12 08:22:09;;;;;;;10.25;5.20;;;;;;;;;;5068663;28;20039;-77
2023/10/12 08:24:36;;;;;;;15.15;5.85;;;;;;;;;;5089536;28;20017;-78
2023/10/12 08:27:05;;;;;;;12.35;5.70;;;;;;;;;;5097832;28;20115;-77
2023/10/12 08:39:37;;;;;;;12.60;5.45;;;;;;;;;;5079548;28;20088;-79
2023/10/12 08:44:34;;;;;;;9.05;5.35;;;;;;;;;;5096350;28;20108;-79
2023/10/12 08:47:09;;;;;;;12.98;6.38;;;;;;;;;;5080116;28;20546;-80
2023/10/12 08:49:34;;;;;;;9.55;5.75;;;;;;;;;;5081404;28;20024;-79
2023/10/12 08:52:04;;;;;;;8.40;5.57;;;;;;;;;;5075729;28;20035;-80
2023/10/12 08:54:41;;;;;;;15.10;6.65;;;;;;;;;;5068914;28;20268;-80
2023/10/12 08:57:37;;;;;;;12.00;6.28;;;;;;;;;;5091763;28;20032;-79
2023/10/12 09:05:54;;;;;;;9.10;5.28;;;;;;;;;;5089100;28;20044;-80
2023/10/12 09:13:17;;;;;;;11.23;6.85;;;;;;;;;;5078378;28;20032;-80
2023/10/12 09:15:45;;;;;;;10.80;5.50;;;;;;;;;;5095200;28;20053;-79
2023/10/12 09:18:11;;;;;;;12.98;6.25;;;;;;;;;;5063478;28;20111;-81
2023/10/12 09:20:45;;;;;;;17.15;6.63;;;;;;;;;;5076803;28;20024;-80
2023/10/12 09:23:15;;;;;;;13.43;6.25;;;;;;;;;;5091201;28;20032;-80
2023/10/12 09:28:25;;;;;;;9.63;5.78;;;;;;;;;;5077215;28;20053;-80
2023/10/12 09:30:51;;;;;;;12.23;6.05;;;;;;;;;;5070129;28;20039;-80
2023/10/12 09:36:01;;;;;;;11.95;6.25;;;;;;;;;;5084877;28;20047;-79
2023/10/12 09:38:30;;;;;;;11.90;6.00;;;;;;;;;;5092861;28;20056;-80
2023/10/12 09:40:59;;;;;;;13.27;6.18;;;;;;;;;;5076119;28;20093;-79
2023/10/12 09:43:25;;;;;;;16.65;6.53;;;;;;;;;;5078195;28;20037;-79
2023/10/12 09:45:58;;;;;;;10.07;5.63;;;;;;;;;;5064964;28;20032;-80
2023/10/12 09:48:29;;;;;;;12.38;5.78;;;;;;;;;;5071299;28;20068;-80
2023/10/12 09:50:55;;;;;;;12.15;5.70;;;;;;;;;;5095107;28;20028;-78
2023/10/12 09:53:26;;;;;;;12.77;5.65;;;;;;;;;;5073014;28;20016;-80
2023/10/12 09:56:11;;;;;;;13.63;6.28;;;;;;;;;;5073058;28;20511;-81
2023/10/12 09:58:46;;;;;;;11.80;6.05;;;;;;;;;;5077336;28;20123;-78
2023/10/12 10:01:22;;;;;;;13.27;6.45;;;;;;;;;;5069932;28;20062;-78
2023/10/12 10:03:48;;;;;;;9.93;5.60;;;;;;;;;;5072164;28;20032;-79
2023/10/12 10:06:20;;;;;;;11.45;6.88;;;;;;;;;;5097065;28;20016;-80
2023/10/12 10:09:18;;;;;;;14.75;6.28;;;;;;;;;;5088268;28;20024;-78
2023/10/12 10:11:34;;;;;;;12.52;7.13;;;;;;;;;;5091963;28;20031;-79
2023/10/12 10:14:03;;;;;;;12.95;5.90;;;;;;;;;;5096298;28;20047;-80
2023/10/12 10:16:37;;;;;;;14.48;7.30;;;;;;;;;;5060129;28;20032;-79
2023/10/12 10:19:13;;;;;;;15.23;7.85;;;;;;;;;;5089344;28;20051;-79
2023/10/12 10:22:04;;;;;;;15.23;6.65;;;;;;;;;;5077733;28;20029;-80
2023/10/12 10:24:34;;;;;;;14.32;7.72;;;;;;;;;;5097865;28;20059;-80
2023/10/12 10:27:11;;;;;;;15.13;7.65;;;;;;;;;;5086075;28;20086;-78
2023/10/12 10:29:57;;;;;;;11.73;6.75;;;;;;;;;;5072353;28;20031;-79
2023/10/12 10:32:33;;;;;;;12.30;6.70;;;;;;;;;;5078542;28;20032;-79
2023/10/12 10:35:08;;;;;;;14.82;6.53;;;;;;;;;;5077550;28;20024;-80
2023/10/12 10:37:38;;;;;;;15.90;9.00;;;;;;;;;;5073078;28;20048;-78
2023/10/12 10:40:07;;;;;;;13.77;7.40;;;;;;;;;;5103129;28;20024;-78
2023/10/12 10:42:33;;;;;;;11.27;6.10;;;;;;;;;;5072057;28;20063;-77
2023/10/12 10:45:08;;;;;;;15.05;5.50;;;;;;;;;;5075377;28;20037;-79
2023/10/12 10:47:33;;;;;;;11.00;5.40;;;;;;;;;;5095594;28;20025;-78
2023/10/12 10:50:00;;;;;;;11.50;6.03;;;;;;;;;;5080102;28;20457;-79
2023/10/12 10:52:26;;;;;;;12.00;6.20;;;;;;;;;;5098928;28;20020;-79
2023/10/12 10:54:59;;;;;;;14.00;6.20;;;;;;;;;;5081060;28;20031;-78
2023/10/12 10:57:25;;;;;;;9.32;5.63;;;;;;;;;;5079901;28;20062;-80
2023/10/12 10:59:51;;;;;;;13.75;5.03;;;;;;;;;;5074190;28;20056;-80
2023/10/12 11:02:17;;;;;;;9.68;6.40;;;;;;;;;;5077846;28;20035;-80
2023/10/12 11:04:44;;;;;;;7.78;4.35;;;;;;;;;;5075096;28;20028;-80
2023/10/12 11:07:13;;;;;;;11.65;5.20;;;;;;;;;;5102801;28;20095;-77
2023/10/12 11:10:05;;;;;;;10.77;5.30;;;;;;;;;;5083824;28;20025;-80
2023/10/12 11:12:36;;;;;;;8.15;4.80;;;;;;;;;;5074347;28;20032;-80
2023/10/12 11:15:05;;;;;;;12.02;5.25;;;;;;;;;;5067842;28;20028;-78
2023/10/12 11:17:35;;;;;;;9.18;4.40;;;;;;;;;;5079826;28;20021;-77
2023/10/12 11:20:01;;;;;;;7.75;3.85;;;;;;;;;;5082448;28;20027;-79
2023/10/12 11:22:26;;;;;;;9.93;3.95;;;;;;;;;;5085215;28;20039;-78
2023/10/12 11:24:53;;;;;;;10.98;3.97;;;;;;;;;;5079141;28;20029;-77
2023/10/12 11:27:32;;;;;;;8.57;3.50;;;;;;;;;;5091188;28;20028;-77
2023/10/12 11:30:00;;;;;;;9.27;3.90;;;;;;;;;;5074629;28;20088;-76
2023/10/12 11:32:28;;;;;;;9.88;3.83;;;;;;;;;;5079985;28;20025;-77
2023/10/12 11:34:55;;;;;;;6.97;3.42;;;;;;;;;;5094440;28;20043;-78
2023/10/12 11:37:23;;;;;;;9.98;3.70;;;;;;;;;;5066046;28;20057;-77
2023/10/12 11:39:52;;;;;;;9.88;3.00;;;;;;;;;;5096875;28;20096;-78
2023/10/12 11:42:17;;;;;;;8.30;3.58;;;;;;;;;;5080370;28;20024;-77
2023/10/12 11:44:43;;;;;;;7.70;3.30;;;;;;;;;;5083582;28;20032;-80
2023/10/12 11:47:24;;;;;;;9.52;3.20;;;;;;;;;;5084573;28;20047;-79
2023/10/12 11:49:55;;;;;;;11.32;3.90;;;;;;;;;;5093969;28;20008;-81
2023/10/12 11:52:30;;;;;;;7.90;3.60;;;;;;;;;;5065769;28;20020;-80
2023/10/12 11:55:18;;;;;;;8.52;4.20;;;;;;;;;;5095139;28;20633;-81
2023/10/12 11:57:44;;;;;;;7.35;3.30;;;;;;;;;;5092740;28;20072;-80
2023/10/12 12:00:21;;;;;;;7.47;3.45;;;;;;;;;;5078048;28;20115;-78
2023/10/12 12:02:57;;;;;;;11.15;3.40;;;;;;;;;;5091879;28;20040;-80
2023/10/12 12:05:22;;;;;;;8.60;3.75;;;;;;;;;;5074993;28;20039;-79
2023/10/12 12:07:51;;;;;;;8.85;3.65;;;;;;;;;;5071361;28;20029;-81
2023/10/12 12:10:27;;;;;;;7.00;3.45;;;;;;;;;;5076788;28;20054;-80
2023/10/12 12:12:52;;;;;;;8.68;3.35;;;;;;;;;;5084271;28;20028;-79
2023/10/12 12:15:18;;;;;;;5.80;2.83;;;;;;;;;;5093861;28;20041;-81
2023/10/12 12:17:45;;;;;;;9.60;3.50;;;;;;;;;;5088325;28;20283;-81
2023/10/12 12:20:16;;;;;;;5.55;2.80;;;;;;;;;;5052581;28;20047;-78
2023/10/12 12:22:44;;;;;;;9.18;3.17;;;;;;;;;;5093684;28;20031;-81
2023/10/12 12:25:17;;;;;;;10.70;3.13;;;;;;;;;;5090441;28;20036;-81
2023/10/12 12:27:48;;;;;;;7.28;3.13;;;;;;;;;;5092538;28;20064;-81
2023/10/12 12:30:22;;;;;;;9.30;3.67;;;;;;;;;;5074462;28;20039;-81
2023/10/12 12:32:49;;;;;;;9.50;3.22;;;;;;;;;;5074079;28;20443;-81
2023/10/12 12:35:15;;;;;;;9.80;3.50;;;;;;;;;;5075994;28;20031;-81
2023/10/12 12:37:40;;;;;;;7.07;2.72;;;;;;;;;;5069649;28;20025;-80
2023/10/12 12:40:28;;;;;;;8.75;2.80;;;;;;;;;;5069010;28;20480;-81
2023/10/12 12:42:54;;;;;;;11.88;4.93;;;;;;;;;;5080857;28;20033;-81
2023/10/12 12:45:19;;;;;;;7.30;2.95;;;;;;;;;;5086674;28;20381;-81
2023/10/12 12:47:44;;;;;;;7.70;3.72;;;;;;;;;;5063435;28;20112;-81
2023/10/12 12:50:09;;;;;;;8.67;3.33;;;;;;;;;;5060236;28;20070;-81
2023/10/12 12:52:40;;;;;;;11.43;4.10;;;;;;;;;;5058821;28;20272;-80
2023/10/12 12:55:10;;;;;;;12.37;3.27;;;;;;;;;;5065031;28;20028;-81
2023/10/12 12:57:38;;;;;;;8.38;3.40;;;;;;;;;;5049434;28;20116;-81
2023/10/12 13:00:10;;;;;;;12.50;3.28;;;;;;;;;;5083422;28;20404;-81
2023/10/12 13:02:38;;;;;;;10.70;3.70;;;;;;;;;;5057946;28;20036;-81
2023/10/12 13:05:05;;;;;;;8.45;3.05;;;;;;;;;;5072366;28;20047;-81
2023/10/12 13:07:30;;;;;;;5.60;2.70;;;;;;;;;;5046720;28;20028;-81
2023/10/12 13:09:56;;;;;;;8.80;3.53;;;;;;;;;;5098768;23;20052;-81
2023/10/12 13:12:22;;;;;;;6.40;2.88;;;;;;;;;;5052954;28;20029;-80
2023/10/12 13:14:48;;;;;;;8.43;3.03;;;;;;;;;;5056498;28;20033;-81
2023/10/12 13:17:15;;;;;;;7.82;3.28;;;;;;;;;;5051754;28;20070;-81
2023/10/12 13:19:44;;;;;;;10.05;3.33;;;;;;;;;;5055672;28;20025;-80
2023/10/12 13:22:10;;;;;;;7.95;2.90;;;;;;;;;;5047493;28;20069;-81
2023/10/12 13:24:37;;;;;;;6.40;2.83;;;;;;;;;;5027155;28;20086;-80
2023/10/12 13:27:08;;;;;;;7.57;3.45;;;;;;;;;;5013747;28;20122;-81
2023/10/12 13:29:34;;;;;;;9.25;3.10;;;;;;;;;;5043209;28;20174;-80
2023/10/12 13:31:59;;;;;;;8.38;3.00;;;;;;;;;;5033029;28;20036;-80
2023/10/12 13:34:25;;;;;;;8.45;3.28;;;;;;;;;;5048410;28;20033;-80
2023/10/12 13:36:52;;;;;;;8.80;3.60;;;;;;;;;;5050632;28;20578;-80
2023/10/12 13:39:17;;;;;;;8.10;2.90;;;;;;;;;;5043741;28;20276;-80
2023/10/12 13:41:42;;;;;;;8.03;3.13;;;;;;;;;;5044870;28;20548;-81
2023/10/12 13:44:07;;;;;;;9.03;3.07;;;;;;;;;;5043599;28;20362;-79
2023/10/12 13:46:34;;;;;;;8.15;3.17;;;;;;;;;;5049611;28;20368;-82
2023/10/12 13:49:02;;;;;;;7.80;3.38;;;;;;;;;;5037641;28;20040;-82
2023/10/12 13:51:31;;;;;;;7.05;3.05;;;;;;;;;;5045263;28;20155;-82
2023/10/12 13:53:57;;;;;;;6.47;2.95;;;;;;;;;;5018864;28;20026;-82
2023/10/12 13:56:23;;;;;;;9.98;3.47;;;;;;;;;;5041439;28;20044;-82
2023/10/12 13:58:49;;;;;;;9.85;3.25;;;;;;;;;;5050018;28;20400;-81
2023/10/12 14:01:14;;;;;;;10.25;3.47;;;;;;;;;;5048445;28;20396;-82
2023/10/12 14:03:41;;;;;;;10.10;3.80;;;;;;;;;;5045229;28;20036;-82
2023/10/12 14:06:06;;;;;;;6.47;3.53;;;;;;;;;;5043200;28;20286;-82
2023/10/12 14:08:32;;;;;;;11.63;3.53;;;;;;;;;;5043478;28;20030;-81
2023/10/12 14:11:03;;;;;;;9.63;3.65;;;;;;;;;;5043342;28;20083;-82
2023/10/12 14:13:28;;;;;;;10.10;3.40;;;;;;;;;;5046579;28;20037;-81
2023/10/12 14:15:53;;;;;;;8.68;3.33;;;;;;;;;;5048550;28;20025;-81
2023/10/12 14:18:19;;;;;;;10.98;3.67;;;;;;;;;;5043681;28;20032;-82
2023/10/12 14:20:44;;;;;;;10.02;3.17;;;;;;;;;;5045661;28;20025;-82
2023/10/12 14:23:10;;;;;;;11.38;3.90;;;;;;;;;;5042704;28;20501;-82
2023/10/12 14:25:42;;;;;;;8.13;3.60;;;;;;;;;;5045085;28;20582;-81
2023/10/12 14:28:08;;;;;;;8.55;3.78;;;;;;;;;;5043586;28;20131;-82
2023/10/12 14:30:34;;;;;;;10.38;3.10;;;;;;;;;;5047026;28;20116;-81
2023/10/12 14:33:03;;;;;;;7.30;3.60;;;;;;;;;;5012903;28;20052;-81
2023/10/12 14:35:35;;;;;;;10.52;2.88;;;;;;;;;;5044789;28;20128;-81
2023/10/12 14:38:02;;;;;;;7.68;3.22;;;;;;;;;;5031620;28;20477;-82
2023/10/12 14:40:29;;;;;;;10.00;3.38;;;;;;;;;;5045607;28;20060;-82
2023/10/12 14:43:05;;;;;;;12.65;3.50;;;;;;;;;;5048975;28;20068;-82
2023/10/12 14:45:31;;;;;;;13.90;3.30;;;;;;;;;;5042546;28;20497;-82
2023/10/12 14:47:59;;;;;;;10.32;3.22;;;;;;;;;;5030239;28;20143;-80
2023/10/12 14:50:24;;;;;;;11.25;3.75;;;;;;;;;;5038835;28;20029;-80
2023/10/12 14:52:53;;;;;;;11.32;4.20;;;;;;;;;;5047046;28;20028;-80
2023/10/12 14:55:20;;;;;;;10.10;2.85;;;;;;;;;;5047042;28;20021;-80
2023/10/12 14:57:49;;;;;;;9.02;3.67;;;;;;;;;;5016445;28;20435;-80
2023/10/12 15:00:22;;;;;;;6.90;3.05;;;;;;;;;;5046952;28;20123;-80
2023/10/12 15:02:51;;;;;;;10.05;3.03;;;;;;;;;;5038409;28;20378;-80
2023/10/12 15:05:17;;;;;;;7.95;3.08;;;;;;;;;;5044243;28;20394;-81
2023/10/12 15:07:42;;;;;;;10.05;3.35;;;;;;;;;;5049175;28;20047;-80
2023/10/12 15:10:07;;;;;;;12.10;3.85;;;;;;;;;;5051148;28;20099;-81
2023/10/12 15:12:33;;;;;;;9.93;3.40;;;;;;;;;;5010491;28;20029;-81
2023/10/12 15:15:04;;;;;;;7.32;3.42;;;;;;;;;;5045619;28;20114;-81
2023/10/12 15:17:29;;;;;;;8.82;3.22;;;;;;;;;;5047827;28;20075;-81
2023/10/12 15:19:55;;;;;;;10.25;3.65;;;;;;;;;;5046294;28;20106;-81
2023/10/12 15:22:20;;;;;;;10.05;3.55;;;;;;;;;;5053544;28;20033;-80
2023/10/12 15:24:45;;;;;;;7.28;3.45;;;;;;;;;;5053274;28;20033;-80
2023/10/12 15:27:10;;;;;;;8.67;3.97;;;;;;;;;;5050378;28;20112;-80
2023/10/12 15:29:37;;;;;;;9.30;3.77;;;;;;;;;;5051004;28;20285;-81
2023/10/12 15:32:03;;;;;;;10.25;3.85;;;;;;;;;;5046908;28;20286;-81
2023/10/12 15:34:29;;;;;;;7.53;3.13;;;;;;;;;;5051002;28;20056;-80
2023/10/12 15:36:58;;;;;;;9.35;3.78;;;;;;;;;;5036416;28;20025;-80
2023/10/12 15:39:26;;;;;;;8.23;3.65;;;;;;;;;;5035775;28;20041;-81
2023/10/12 15:41:51;;;;;;;10.55;3.92;;;;;;;;;;5032275;28;20040;-78
2023/10/12 15:44:16;;;;;;;9.00;4.70;;;;;;;;;;5048593;28;20120;-79
2023/10/12 15:46:42;;;;;;;7.73;3.37;;;;;;;;;;5055948;28;20292;-81
2023/10/12 15:49:07;;;;;;;8.87;3.73;;;;;;;;;;5047703;28;20276;-81
2023/10/12 15:51:32;;;;;;;9.53;3.03;;;;;;;;;;5049031;28;20286;-81
2023/10/12 15:53:58;;;;;;;9.83;3.47;;;;;;;;;;5050321;28;20275;-81
2023/10/12 15:56:25;;;;;;;9.85;3.40;;;;;;;;;;5045424;28;20333;-81
2023/10/12 15:58:50;;;;;;;9.88;3.67;;;;;;;;;;5031652;28;20374;-80
2023/10/12 16:01:17;;;;;;;8.70;3.60;;;;;;;;;;5048229;28;20043;-81
2023/10/12 16:03:42;;;;;;;10.00;3.95;;;;;;;;;;5049451;28;20037;-80
2023/10/12 16:06:08;;;;;;;8.93;4.05;;;;;;;;;;5051694;28;20029;-81
2023/10/12 16:08:33;;;;;;;9.23;3.67;;;;;;;;;;5050497;28;20021;-81
2023/10/12 16:10:58;;;;;;;7.43;3.30;;;;;;;;;;5050294;28;20505;-79
2023/10/12 16:13:24;;;;;;;7.97;3.78;;;;;;;;;;5047538;28;20301;-80
2023/10/12 16:15:54;;;;;;;6.90;3.42;;;;;;;;;;5046843;28;20029;-80
2023/10/12 16:18:20;;;;;;;10.75;3.63;;;;;;;;;;5052878;28;20107;-83
2023/10/12 16:20:45;;;;;;;9.82;4.53;;;;;;;;;;5050819;28;20152;-82
2023/10/12 16:23:10;;;;;;;6.90;3.15;;;;;;;;;;5049280;28;20051;-81
2023/10/12 16:25:35;;;;;;;10.43;3.90;;;;;;;;;;5047841;28;20039;-81
2023/10/12 16:28:02;;;;;;;8.80;4.07;;;;;;;;;;5046921;28;20028;-81
2023/10/12 16:30:34;;;;;;;10.65;3.92;;;;;;;;;;5051939;28;20405;-81
2023/10/12 16:32:59;;;;;;;;;;;;;;;;;;5052557;28;20033;-81
2023/10/12 16:35:24;;;;;;;10.10;3.70;;;;;;;;;;5048953;28;19916;-80
2023/10/12 16:37:55;;;;;;;13.80;4.38;;;;;;;;;;5049076;28;20029;-86
2023/10/12 16:40:22;;;;;;;11.43;4.00;;;;;;;;;;5047583;28;20036;-80
2023/10/12 16:42:47;;;;;;;12.52;4.65;;;;;;;;;;5047863;28;20350;-80
2023/10/12 16:45:14;;;;;;;15.25;6.07;;;;;;;;;;5034337;28;20167;-80
2023/10/12 16:47:40;;;;;;;9.52;5.15;;;;;;;;;;5050837;28;20362;-80
2023/10/12 16:50:05;;;;;;;11.25;5.10;;;;;;;;;;5032641;28;20044;-80